Time;durP1;ratioP1;P1;durP2;ratioP2;P2;SDS_P1;SDS_P2;PMS_P1;PMS_P2;Temp;Humidity;BMP_temperature;BMP_pressure;BME280_temperature;BME280_humidity;BME280_pressure;Samples;Min_cycle;Max_cycle;Signal;HPM_P1;HPM_P2
2023/06/07 00:00:41;;;;;;;7.72;3.35;;;;;;;18.88;45.27;94075.00;4976147;28;20696;-71
2023/06/07 00:03:09;;;;;;;8.02;3.35;;;;;;;18.80;46.03;94067.16;4972402;28;20030;-72
2023/06/07 00:05:38;;;;;;;3.70;2.67;;;;;;;18.92;45.85;94075.03;4975671;28;20031;-71
2023/06/07 00:08:05;;;;;;;3.70;2.47;;;;;;;18.88;44.70;94079.59;4972112;28;20104;-72
2023/06/07 00:10:33;;;;;;;5.32;2.75;;;;;;;18.84;45.73;94062.59;4973664;28;20069;-72
2023/06/07 00:12:58;;;;;;;6.15;2.83;;;;;;;18.79;45.60;94071.75;4970732;28;20030;-71
2023/06/07 00:15:23;;;;;;;7.47;2.75;;;;;;;18.77;45.29;94063.25;4973593;28;20022;-72
2023/06/07 00:17:49;;;;;;;4.07;2.13;;;;;;;18.65;44.18;94060.69;4972015;28;20026;-73
2023/06/07 00:20:15;;;;;;;4.85;2.65;;;;;;;18.63;44.06;94068.34;4971588;28;20556;-73
2023/06/07 00:22:41;;;;;;;5.55;2.60;;;;;;;18.31;44.77;94072.38;4973773;28;20065;-71
2023/06/07 00:25:07;;;;;;;5.45;2.63;;;;;;;18.10;45.24;94047.72;4973309;28;20658;-72
2023/06/07 00:27:32;;;;;;;2.83;2.00;;;;;;;17.99;45.77;94050.97;4974087;28;20061;-72
2023/06/07 00:29:58;;;;;;;2.83;2.17;;;;;;;17.96;45.90;94058.97;4974177;28;20035;-71
2023/06/07 00:32:23;;;;;;;4.40;2.70;;;;;;;18.14;45.89;94037.81;4972918;28;20038;-72
2023/06/07 00:34:49;;;;;;;4.93;2.78;;;;;;;18.16;45.57;94051.69;4988218;28;20570;-72
2023/06/07 00:37:14;;;;;;;3.58;2.50;;;;;;;18.35;45.51;94054.34;4973088;28;20461;-72
2023/06/07 00:39:40;;;;;;;4.05;2.05;;;;;;;18.20;45.21;94044.44;4974125;28;20039;-72
2023/06/07 00:42:06;;;;;;;3.25;2.30;;;;;;;18.32;45.75;94047.00;4972563;28;20097;-72
2023/06/07 00:44:32;;;;;;;4.65;2.60;;;;;;;18.42;45.38;94057.19;4974152;28;20046;-72
2023/06/07 00:46:57;;;;;;;3.35;2.45;;;;;;;18.50;45.20;94058.88;4972813;28;20053;-72
2023/06/07 00:49:23;;;;;;;7.15;2.45;;;;;;;18.57;44.45;94059.03;4969910;28;20042;-72
2023/06/07 00:51:49;;;;;;;4.22;2.30;;;;;;;18.44;45.23;94052.22;4974831;28;20054;-72
2023/06/07 00:54:17;;;;;;;5.13;3.03;;;;;;;18.33;44.93;94045.88;4974065;28;20050;-71
2023/06/07 00:56:50;;;;;;;6.53;3.10;;;;;;;18.37;44.84;94057.47;4973520;28;20042;-72
2023/06/07 00:59:22;;;;;;;4.07;2.97;;;;;;;18.39;45.18;94057.88;4975331;28;20133;-72
2023/06/07 01:01:51;;;;;;;3.90;2.47;;;;;;;18.51;45.00;94065.81;4978270;28;20334;-72
2023/06/07 01:04:19;;;;;;;3.65;2.28;;;;;;;18.37;45.67;94049.41;4974651;28;20042;-72
2023/06/07 01:06:45;;;;;;;4.97;2.88;;;;;;;18.41;45.57;94055.63;4972532;28;20484;-70
2023/06/07 01:09:13;;;;;;;11.75;3.38;;;;;;;18.36;46.13;94058.63;4976601;28;20529;-71
2023/06/07 01:11:41;;;;;;;6.50;3.17;;;;;;;18.46;46.33;94064.22;4978644;28;20274;-71
2023/06/07 01:14:09;;;;;;;4.60;3.83;;;;;;;18.48;46.12;94053.84;4975075;28;20038;-70
2023/06/07 01:16:35;;;;;;;4.47;3.20;;;;;;;18.38;45.83;94045.59;4976120;28;20040;-72
2023/06/07 01:19:03;;;;;;;4.43;2.90;;;;;;;18.48;46.07;94055.00;4977645;28;20030;-73
2023/06/07 01:21:29;;;;;;;5.18;3.03;;;;;;;18.43;45.70;94042.59;4976909;28;20022;-72
2023/06/07 01:23:56;;;;;;;6.68;3.10;;;;;;;18.34;46.18;94039.34;4975550;28;20436;-73
2023/06/07 01:26:26;;;;;;;7.38;3.25;;;;;;;18.38;46.11;94053.66;4976475;28;20050;-70
2023/06/07 01:28:53;;;;;;;8.18;3.22;;;;;;;18.29;46.33;94036.94;4975591;28;20129;-73
2023/06/07 01:31:20;;;;;;;4.78;3.20;;;;;;;18.42;46.20;94051.81;4977138;28;20096;-70
2023/06/07 01:33:46;;;;;;;3.03;2.53;;;;;;;18.36;46.26;94042.47;4975135;28;20077;-73
2023/06/07 01:36:14;;;;;;;4.72;2.53;;;;;;;18.36;46.22;94045.16;4974490;28;20534;-72
2023/06/07 01:38:41;;;;;;;2.70;2.30;;;;;;;18.39;46.60;94044.44;4975096;28;20068;-72
2023/06/07 01:41:08;;;;;;;4.35;3.03;;;;;;;18.36;46.54;94047.84;4975349;28;20034;-72
2023/06/07 01:43:36;;;;;;;4.47;3.10;;;;;;;18.46;46.80;94044.56;4972611;28;20049;-72
2023/06/07 01:46:03;;;;;;;5.63;3.33;;;;;;;18.43;46.56;94043.34;4977390;28;20523;-72
2023/06/07 01:48:29;;;;;;;4.35;2.58;;;;;;;18.51;47.46;94043.50;4977296;28;20037;-73
2023/06/07 01:50:54;;;;;;;4.28;3.03;;;;;;;18.39;47.38;94033.66;4970216;28;20128;-72
2023/06/07 01:53:20;;;;;;;4.97;2.95;;;;;;;18.40;47.22;94035.22;4971038;28;20046;-72
2023/06/07 01:55:56;;;;;;;4.65;2.70;;;;;;;18.32;47.49;94037.00;4974884;28;20046;-72
2023/06/07 01:58:47;;;;;;;3.90;2.85;;;;;;;18.30;47.96;94041.97;4976638;28;20030;-72
2023/06/07 02:01:21;;;;;;;3.72;2.85;;;;;;;18.24;47.81;94035.31;4966937;28;20452;-72
2023/06/07 02:03:52;;;;;;;4.03;3.22;;;;;;;18.17;47.96;94045.16;4974093;28;20547;-73
2023/06/07 02:06:24;;;;;;;8.43;3.85;;;;;;;17.90;48.37;94001.94;4976529;28;20505;-73
2023/06/07 02:08:53;;;;;;;5.75;3.38;;;;;;;18.06;48.30;94022.63;4973495;28;20506;-73
2023/06/07 02:11:21;;;;;;;6.22;2.88;;;;;;;18.09;48.66;94032.72;4975847;28;20030;-72
2023/06/07 02:13:49;;;;;;;4.85;2.83;;;;;;;18.15;49.01;94042.03;4974031;28;20037;-73
2023/06/07 02:16:15;;;;;;;7.18;3.03;;;;;;;18.10;49.41;94039.63;4976549;28;20104;-73
2023/06/07 02:18:41;;;;;;;4.70;3.08;;;;;;;18.09;49.20;94043.47;4975997;28;20033;-74
2023/06/07 02:21:10;;;;;;;4.85;3.13;;;;;;;18.07;48.55;94048.44;4972983;28;20046;-72
2023/06/07 02:23:36;;;;;;;3.95;2.58;;;;;;;18.02;47.79;94044.88;4974764;28;20706;-73
2023/06/07 02:26:02;;;;;;;6.20;2.63;;;;;;;18.07;47.56;94053.81;4972652;28;20137;-73
2023/06/07 02:28:27;;;;;;;3.92;3.10;;;;;;;17.90;47.66;94031.53;4975477;28;20119;-72
2023/06/07 02:30:57;;;;;;;4.25;2.53;;;;;;;17.92;47.37;94050.03;4974983;28;20496;-73
2023/06/07 02:33:26;;;;;;;5.13;2.70;;;;;;;17.79;47.59;94035.94;4975167;28;20030;-73
2023/06/07 02:35:52;;;;;;;5.07;2.92;;;;;;;17.95;48.15;94055.50;4974817;28;20070;-72
2023/06/07 02:38:17;;;;;;;5.45;2.60;;;;;;;17.85;48.40;94050.63;4974445;28;20461;-73
2023/06/07 02:40:43;;;;;;;5.05;2.67;;;;;;;17.85;48.56;94055.25;4974107;28;20508;-73
2023/06/07 02:43:08;;;;;;;4.90;2.75;;;;;;;17.89;48.70;94051.50;4973898;28;20058;-72
2023/06/07 02:45:33;;;;;;;2.30;2.08;;;;;;;17.80;49.11;94048.22;4976928;28;20022;-72
2023/06/07 02:47:59;;;;;;;2.42;2.17;;;;;;;17.83;49.42;94052.91;4970600;28;20061;-74
2023/06/07 02:50:25;;;;;;;7.07;2.38;;;;;;;17.75;48.90;94045.81;4974168;28;20551;-73
2023/06/07 02:52:51;;;;;;;3.78;2.40;;;;;;;17.68;48.81;94051.06;4974237;28;20038;-72
2023/06/07 02:55:17;;;;;;;6.15;2.72;;;;;;;17.66;48.73;94050.63;4975899;28;20042;-73
2023/06/07 02:57:43;;;;;;;6.10;2.42;;;;;;;17.60;49.24;94033.19;4973785;28;20053;-72
2023/06/07 03:00:11;;;;;;;3.85;2.60;;;;;;;17.57;49.73;94036.59;4974768;28;20030;-72
2023/06/07 03:02:40;;;;;;;2.92;2.15;;;;;;;17.62;49.15;94030.94;4974508;28;20089;-72
2023/06/07 03:05:07;;;;;;;3.35;2.45;;;;;;;17.59;48.12;94053.16;4974684;28;20026;-73
2023/06/07 03:07:34;;;;;;;6.05;2.55;;;;;;;17.54;47.97;94046.16;4971219;28;20522;-72
2023/06/07 03:10:00;;;;;;;9.07;3.10;;;;;;;17.57;47.48;94028.53;4976660;28;20030;-73
2023/06/07 03:12:25;;;;;;;6.30;2.65;;;;;;;17.58;47.82;94046.22;4971440;28;20655;-72
2023/06/07 03:14:50;;;;;;;6.05;2.72;;;;;;;17.47;47.95;94050.56;4975427;28;20124;-72
2023/06/07 03:17:17;;;;;;;4.28;2.83;;;;;;;17.40;48.21;94028.94;4976060;28;20413;-73
2023/06/07 03:19:42;;;;;;;4.57;3.03;;;;;;;17.52;47.88;94040.34;4972703;28;20056;-73
2023/06/07 03:22:08;;;;;;;5.10;3.20;;;;;;;17.49;47.78;94042.97;4976251;28;20746;-72
2023/06/07 03:24:36;;;;;;;4.40;2.70;;;;;;;17.47;47.86;94037.91;4972692;28;20027;-72
2023/06/07 03:27:03;;;;;;;2.78;2.38;;;;;;;17.38;47.50;94039.25;4975148;28;20108;-72
2023/06/07 03:29:30;;;;;;;4.70;2.90;;;;;;;17.38;47.86;94036.56;4974295;28;20050;-73
2023/06/07 03:31:56;;;;;;;4.32;2.67;;;;;;;17.47;47.75;94050.56;4984568;28;20459;-73
2023/06/07 03:34:22;;;;;;;5.75;2.83;;;;;;;17.41;47.50;94039.31;4974260;28;20038;-72
2023/06/07 03:36:47;;;;;;;5.93;2.70;;;;;;;17.56;47.19;94051.16;4974983;28;20037;-73
2023/06/07 03:39:13;;;;;;;5.55;3.15;;;;;;;17.47;47.10;94037.13;4971944;28;20049;-73
2023/06/07 03:41:38;;;;;;;7.63;3.05;;;;;;;17.38;47.00;94015.03;4975656;28;20030;-72
2023/06/07 03:44:04;;;;;;;5.40;2.08;;;;;;;17.57;47.35;94050.03;4971583;28;20042;-72
2023/06/07 03:46:30;;;;;;;6.20;3.45;;;;;;;17.68;46.79;94056.44;4975469;28;20085;-73
2023/06/07 03:48:55;;;;;;;4.75;3.05;;;;;;;17.53;47.44;94041.13;4969871;28;20073;-72
2023/06/07 03:51:20;;;;;;;4.20;2.88;;;;;;;17.48;47.20;94038.69;4973691;28;20034;-72
2023/06/07 03:53:46;;;;;;;3.75;2.80;;;;;;;17.56;47.81;94045.78;4973286;28;20074;-72
2023/06/07 03:56:12;;;;;;;3.88;2.80;;;;;;;17.54;48.00;94050.75;4971209;28;20048;-73
2023/06/07 03:58:37;;;;;;;5.03;2.83;;;;;;;17.46;48.57;94035.56;4974219;28;20115;-72
2023/06/07 04:01:03;;;;;;;5.13;3.42;;;;;;;17.51;48.31;94046.06;4972329;28;20030;-72
2023/06/07 04:03:30;;;;;;;6.15;3.63;;;;;;;17.28;49.12;94039.78;4974179;28;20034;-71
2023/06/07 04:05:56;;;;;;;19.17;3.90;;;;;;;17.40;49.46;94055.81;4971059;28;20041;-72
2023/06/07 04:08:21;;;;;;;9.50;3.28;;;;;;;17.42;49.27;94057.00;4974728;28;20042;-72
2023/06/07 04:10:46;;;;;;;6.25;2.58;;;;;;;17.25;47.26;94046.66;4974378;28;20034;-71
2023/06/07 04:13:12;;;;;;;5.40;2.75;;;;;;;16.94;47.30;94052.78;4972644;28;20046;-73
2023/06/07 04:15:37;;;;;;;5.45;2.60;;;;;;;17.12;46.80;94051.28;4974333;28;20030;-73
2023/06/07 04:18:03;;;;;;;8.43;2.58;;;;;;;17.00;46.77;94047.94;4971319;28;20126;-73
2023/06/07 04:20:28;;;;;;;5.25;2.95;;;;;;;16.83;47.03;94049.03;4973501;28;20045;-72
2023/06/07 04:22:54;;;;;;;6.22;3.25;;;;;;;16.80;47.20;94048.97;4972881;28;20038;-73
2023/06/07 04:25:21;;;;;;;5.97;2.80;;;;;;;16.75;47.35;94053.47;4974054;28;20031;-72
2023/06/07 04:27:48;;;;;;;7.72;2.72;;;;;;;16.77;47.90;94034.31;4971894;28;20703;-72
2023/06/07 04:30:18;;;;;;;4.30;2.83;;;;;;;16.89;47.48;94050.34;4990428;28;20030;-72
2023/06/07 04:32:46;;;;;;;6.07;2.53;;;;;;;16.57;47.62;94046.88;4975014;28;20532;-72
2023/06/07 04:35:14;;;;;;;6.78;2.17;;;;;;;16.67;47.86;94056.34;4976329;28;20090;-73
2023/06/07 04:37:42;;;;;;;4.45;2.35;;;;;;;16.80;47.94;94054.34;4978647;28;20043;-72
2023/06/07 04:40:09;;;;;;;6.65;2.20;;;;;;;16.89;47.42;94058.41;4977020;28;20038;-72
2023/06/07 04:42:37;;;;;;;5.22;3.03;;;;;;;17.00;47.79;94053.31;4974746;28;20030;-73
2023/06/07 04:45:04;;;;;;;7.20;2.88;;;;;;;17.13;48.03;94039.44;4975186;28;20027;-73
2023/06/07 04:47:29;;;;;;;10.35;4.15;;;;;;;17.28;47.91;94048.63;4975731;28;20039;-71
2023/06/07 04:49:55;;;;;;;5.18;2.88;;;;;;;17.24;47.28;94041.59;4978230;28;20416;-73
2023/06/07 04:52:21;;;;;;;6.25;3.10;;;;;;;17.02;47.74;94040.28;4974374;28;20042;-70
2023/06/07 04:54:46;;;;;;;6.97;2.55;;;;;;;17.09;48.17;94048.53;4978562;28;20260;-71
2023/06/07 04:57:13;;;;;;;9.02;3.28;;;;;;;17.35;47.71;94050.69;4976105;28;20045;-70
2023/06/07 04:59:43;;;;;;;7.85;3.25;;;;;;;17.23;48.17;94038.13;4976104;28;20496;-70
2023/06/07 05:02:09;;;;;;;8.57;3.30;;;;;;;17.29;48.04;94041.34;4972047;28;20065;-71
2023/06/07 05:04:34;;;;;;;5.07;2.38;;;;;;;17.14;47.89;94026.78;4974813;28;20628;-70
2023/06/07 05:07:00;;;;;;;10.88;3.25;;;;;;;17.58;46.93;94051.59;4977226;28;20032;-73
2023/06/07 05:09:26;;;;;;;3.95;2.53;;;;;;;17.53;47.42;94043.81;4975771;28;20036;-74
2023/06/07 05:11:52;;;;;;;5.18;2.65;;;;;;;17.46;47.11;94039.03;4978182;28;20058;-71
2023/06/07 05:14:17;;;;;;;10.45;3.08;;;;;;;17.56;47.90;94061.91;4970640;28;20551;-73
2023/06/07 05:16:43;;;;;;;8.68;2.90;;;;;;;17.55;47.61;94063.06;4973412;28;20078;-73
2023/06/07 05:19:11;;;;;;;5.32;2.63;;;;;;;17.37;48.58;94057.28;4973682;28;20057;-72
2023/06/07 05:21:37;;;;;;;8.77;3.08;;;;;;;17.50;47.62;94060.66;4975633;28;20033;-73
2023/06/07 05:24:02;;;;;;;9.88;3.53;;;;;;;17.48;48.43;94065.59;4976915;28;20042;-72
2023/06/07 05:26:28;;;;;;;6.57;2.70;;;;;;;17.63;47.77;94058.63;4974678;28;20046;-74
2023/06/07 05:28:53;;;;;;;8.65;2.30;;;;;;;17.78;47.76;94055.88;4974768;28;20731;-71
2023/06/07 05:31:18;;;;;;;6.05;3.05;;;;;;;17.93;47.70;94057.78;4976253;28;20129;-72
2023/06/07 05:33:45;;;;;;;6.57;3.00;;;;;;;17.99;48.24;94064.41;4994374;28;20030;-73
2023/06/07 05:36:11;;;;;;;5.25;2.97;;;;;;;17.91;47.36;94070.75;4976079;28;20075;-73
2023/06/07 05:38:37;;;;;;;10.73;3.35;;;;;;;18.16;47.02;94065.13;4977498;28;20527;-72
2023/06/07 05:41:02;;;;;;;7.55;2.75;;;;;;;18.40;46.33;94067.53;4975586;28;20042;-72
2023/06/07 05:43:28;;;;;;;6.28;2.95;;;;;;;18.09;46.81;94046.91;4972581;28;20037;-72
2023/06/07 05:45:53;;;;;;;17.00;2.97;;;;;;;18.33;47.75;94059.34;4974371;28;20029;-73
2023/06/07 05:48:19;;;;;;;9.70;3.75;;;;;;;18.12;47.87;94061.59;4976321;28;20567;-73
2023/06/07 05:50:45;;;;;;;6.43;3.33;;;;;;;18.22;48.00;94058.34;4975293;28;20574;-73
2023/06/07 05:53:11;;;;;;;8.63;3.10;;;;;;;18.15;48.17;94056.28;4974152;28;20139;-73
2023/06/07 05:55:36;;;;;;;12.32;3.63;;;;;;;18.06;47.54;94060.31;4973295;28;20042;-73
2023/06/07 05:58:03;;;;;;;5.03;2.75;;;;;;;17.97;47.89;94060.53;4971576;28;20916;-73
2023/06/07 06:00:29;;;;;;;9.52;3.22;;;;;;;18.15;47.80;94052.81;4972034;28;20029;-72
2023/06/07 06:02:54;;;;;;;9.20;2.88;;;;;;;17.73;48.26;94036.56;4969163;28;20567;-70
2023/06/07 06:05:27;;;;;;;15.85;4.15;;;;;;;17.94;48.28;94048.53;4972657;28;20122;-71
2023/06/07 06:07:54;;;;;;;8.15;2.92;;;;;;;17.81;48.74;94039.03;4970909;28;20092;-71
2023/06/07 06:10:19;;;;;;;9.50;3.65;;;;;;;17.74;48.70;94048.88;4972117;28;20563;-72
2023/06/07 06:12:45;;;;;;;8.73;3.55;;;;;;;18.02;49.23;94052.97;4971870;28;20072;-73
2023/06/07 06:15:10;;;;;;;10.20;4.15;;;;;;;17.98;48.74;94054.81;4972472;28;20109;-71
2023/06/07 06:17:36;;;;;;;6.10;3.28;;;;;;;18.03;48.13;94042.97;4973502;28;20139;-71
2023/06/07 06:20:02;;;;;;;3.85;2.65;;;;;;;17.91;48.73;94049.25;4972369;28;20054;-74
2023/06/07 06:22:28;;;;;;;9.18;3.83;;;;;;;18.07;48.31;94040.34;4971510;28;20049;-73
2023/06/07 06:24:53;;;;;;;6.00;3.08;;;;;;;17.98;48.05;94060.19;4971701;28;20022;-73
2023/06/07 06:27:20;;;;;;;18.30;4.05;;;;;;;17.89;48.45;94046.09;4964307;28;20062;-72
2023/06/07 06:29:46;;;;;;;7.95;3.58;;;;;;;18.02;48.35;94066.41;4960180;28;20500;-74
2023/06/07 06:32:11;;;;;;;9.02;3.00;;;;;;;18.11;47.58;94051.97;4974666;28;20052;-73
2023/06/07 06:34:37;;;;;;;5.18;3.15;;;;;;;17.92;48.46;94066.16;4971077;28;20038;-73
2023/06/07 06:37:04;;;;;;;7.30;3.00;;;;;;;18.06;47.93;94065.69;4974606;28;20042;-73
2023/06/07 06:39:30;;;;;;;9.75;3.25;;;;;;;18.14;48.31;94062.03;4973680;28;20066;-70
2023/06/07 06:41:55;;;;;;;10.95;4.03;;;;;;;18.26;48.30;94053.81;4973849;28;20440;-73
2023/06/07 06:44:21;;;;;;;6.38;3.63;;;;;;;18.17;48.97;94051.34;4972185;28;20516;-73
2023/06/07 06:46:48;;;;;;;7.45;3.38;;;;;;;18.53;47.34;94068.19;4975224;28;20150;-72
2023/06/07 06:49:14;;;;;;;8.57;3.90;;;;;;;18.42;48.44;94054.50;4974184;28;20114;-73
2023/06/07 06:51:40;;;;;;;8.43;3.40;;;;;;;18.40;48.18;94010.97;4976634;28;20062;-72
2023/06/07 06:54:05;;;;;;;10.18;3.22;;;;;;;18.82;48.39;94064.88;4972074;28;20038;-72
2023/06/07 06:56:31;;;;;;;8.60;3.30;;;;;;;18.94;48.38;94050.44;4972163;28;20092;-71
2023/06/07 06:58:56;;;;;;;7.15;3.03;;;;;;;18.70;48.94;94056.94;4973222;28;20530;-72
2023/06/07 07:01:22;;;;;;;8.48;3.30;;;;;;;18.85;47.01;94062.25;4971916;28;20912;-73
2023/06/07 07:03:47;;;;;;;11.40;3.38;;;;;;;18.86;46.88;94061.13;4973307;28;20026;-73
2023/06/07 07:06:12;;;;;;;6.07;3.28;;;;;;;18.94;47.74;94062.00;4970437;28;20106;-72
2023/06/07 07:08:39;;;;;;;8.18;2.83;;;;;;;19.04;47.12;94039.06;4973772;28;20030;-73
2023/06/07 07:11:04;;;;;;;5.65;2.97;;;;;;;18.99;48.29;94044.75;4973397;28;20607;-71
2023/06/07 07:13:30;;;;;;;6.35;2.47;;;;;;;19.07;47.92;94043.72;4972721;28;20053;-73
2023/06/07 07:15:56;;;;;;;8.65;3.92;;;;;;;19.23;47.01;94052.44;4974984;28;20093;-73
2023/06/07 07:18:21;;;;;;;8.13;3.13;;;;;;;18.75;47.56;94002.78;4975585;28;20080;-72
2023/06/07 07:20:47;;;;;;;7.03;2.95;;;;;;;18.92;47.29;94010.38;4974598;28;20070;-73
2023/06/07 07:23:12;;;;;;;7.20;2.63;;;;;;;19.23;47.91;94044.38;4973823;28;20556;-74
2023/06/07 07:25:38;;;;;;;5.97;3.05;;;;;;;18.96;47.49;94046.25;4976082;28;20125;-74
2023/06/07 07:28:04;;;;;;;8.73;3.78;;;;;;;19.04;47.20;94039.06;4972562;28;20088;-73
2023/06/07 07:30:29;;;;;;;9.05;3.08;;;;;;;19.05;47.50;94040.63;4976676;28;20019;-72
2023/06/07 07:32:56;;;;;;;6.88;3.40;;;;;;;19.29;47.04;94049.09;4974765;28;20085;-74
2023/06/07 07:35:22;;;;;;;6.22;2.83;;;;;;;19.19;47.58;94048.94;4976713;28;20516;-73
2023/06/07 07:37:49;;;;;;;9.43;3.10;;;;;;;19.29;47.87;94043.72;4973532;28;20034;-72
2023/06/07 07:40:14;;;;;;;10.20;3.22;;;;;;;19.31;47.61;94044.09;4976110;28;20057;-72
2023/06/07 07:42:40;;;;;;;5.40;3.22;;;;;;;19.53;47.75;94044.47;4975350;28;20640;-73
2023/06/07 07:45:06;;;;;;;9.68;3.42;;;;;;;19.46;47.69;94037.03;4974598;28;20030;-72
2023/06/07 07:47:33;;;;;;;8.98;3.15;;;;;;;19.66;47.77;94049.28;4974903;28;20172;-73
2023/06/07 07:49:58;;;;;;;9.45;3.28;;;;;;;19.84;47.47;94048.75;4973316;28;20062;-72
2023/06/07 07:52:23;;;;;;;6.15;3.33;;;;;;;19.68;47.17;94024.63;4972984;28;20038;-72
2023/06/07 07:54:49;;;;;;;10.55;3.60;;;;;;;19.77;46.27;94027.84;4974648;28;20019;-71
2023/06/07 07:57:15;;;;;;;4.70;3.13;;;;;;;19.50;47.04;94029.00;4974170;28;20045;-73
2023/06/07 07:59:40;;;;;;;12.80;3.30;;;;;;;19.89;48.56;94046.50;4971882;28;20044;-74
2023/06/07 08:02:06;;;;;;;9.07;3.80;;;;;;;20.01;48.12;94038.16;4975020;28;20731;-73
2023/06/07 08:04:31;;;;;;;8.38;3.25;;;;;;;20.03;47.04;94045.91;4972493;28;20061;-72
2023/06/07 08:06:57;;;;;;;9.27;3.38;;;;;;;20.12;46.64;94049.09;4977327;28;20057;-73
2023/06/07 08:09:22;;;;;;;9.43;3.40;;;;;;;19.81;47.36;94050.25;4978082;28;20031;-73
2023/06/07 08:11:48;;;;;;;9.98;2.90;;;;;;;19.75;47.57;94043.59;4978019;28;20031;-73
2023/06/07 08:14:14;;;;;;;11.18;3.22;;;;;;;20.03;47.01;94048.63;4974137;28;20097;-73
2023/06/07 08:16:39;;;;;;;7.93;3.60;;;;;;;20.21;46.34;94043.44;4976364;28;20043;-74
2023/06/07 08:19:06;;;;;;;5.75;3.17;;;;;;;20.12;45.60;94051.81;4978349;28;20373;-73
2023/06/07 08:21:33;;;;;;;9.10;3.25;;;;;;;20.05;45.77;94049.00;4975757;28;20030;-72
2023/06/07 08:23:59;;;;;;;6.03;3.17;;;;;;;20.08;47.06;94051.00;4978442;28;20042;-73
2023/06/07 08:26:25;;;;;;;7.65;3.15;;;;;;;19.86;46.34;94051.84;4976268;28;20161;-73
2023/06/07 08:28:50;;;;;;;7.80;2.80;;;;;;;20.30;46.00;94055.50;4976927;28;20046;-73
2023/06/07 08:31:15;;;;;;;5.20;3.08;;;;;;;20.44;46.15;94058.38;4975704;28;20045;-73
2023/06/07 08:33:41;;;;;;;4.40;2.72;;;;;;;20.33;46.91;94060.19;4971085;28;20042;-72
2023/06/07 08:36:06;;;;;;;7.72;4.20;;;;;;;20.49;46.75;94041.84;4977149;28;20035;-73
2023/06/07 08:38:31;;;;;;;9.32;3.20;;;;;;;20.64;44.99;94047.38;4979036;28;20080;-73
2023/06/07 08:40:59;;;;;;;12.02;2.90;;;;;;;20.53;46.23;94037.25;4977462;28;20870;-73
2023/06/07 08:43:28;;;;;;;5.95;3.20;;;;;;;20.65;45.59;94051.66;4979446;28;20038;-74
2023/06/07 08:45:59;;;;;;;5.15;2.35;;;;;;;20.47;45.77;94032.56;4977152;28;20029;-73
2023/06/07 08:48:25;;;;;;;7.35;3.08;;;;;;;20.54;46.30;94054.22;4977485;28;20404;-72
2023/06/07 08:50:54;;;;;;;7.40;3.20;;;;;;;20.38;46.31;94057.16;4976600;28;20035;-73
2023/06/07 08:53:27;;;;;;;7.50;3.00;;;;;;;20.27;45.58;94056.25;4976632;28;20031;-73
2023/06/07 08:55:54;;;;;;;7.00;3.38;;;;;;;20.38;47.15;94046.38;4976607;28;20053;-72
2023/06/07 08:58:20;;;;;;;7.68;4.18;;;;;;;20.39;45.66;94042.50;4976327;28;20077;-72
2023/06/07 09:00:47;;;;;;;5.68;3.28;;;;;;;20.64;45.92;94041.97;4967775;28;20081;-72
2023/06/07 09:03:12;;;;;;;6.78;3.67;;;;;;;20.50;44.91;94053.41;4968486;28;20057;-73
2023/06/07 09:05:37;;;;;;;9.82;3.30;;;;;;;20.51;45.75;94050.38;4969718;28;20121;-74
2023/06/07 09:08:03;;;;;;;9.55;3.50;;;;;;;20.56;45.21;94050.03;4968966;28;20128;-72
2023/06/07 09:10:29;;;;;;;6.90;3.30;;;;;;;20.87;44.68;94045.34;4974216;28;20031;-73
2023/06/07 09:12:55;;;;;;;8.20;3.10;;;;;;;20.51;45.56;94015.25;4973886;28;20121;-72
2023/06/07 09:15:21;;;;;;;9.05;3.60;;;;;;;20.74;46.45;94046.72;4975889;28;20036;-74
2023/06/07 09:17:58;;;;;;;6.35;3.38;;;;;;;20.75;45.47;94048.28;4977794;28;20041;-73
2023/06/07 09:20:25;;;;;;;7.53;3.08;;;;;;;20.90;44.16;94042.66;4976246;28;20047;-72
2023/06/07 09:22:58;;;;;;;5.55;3.35;;;;;;;20.87;45.24;94039.94;4989236;28;20036;-73
2023/06/07 09:25:24;;;;;;;6.30;3.08;;;;;;;20.99;46.14;94043.13;4977990;28;20077;-74
2023/06/07 09:27:50;;;;;;;7.47;3.20;;;;;;;21.24;44.57;94046.03;4973910;28;20783;-73
2023/06/07 09:30:17;;;;;;;6.32;3.70;;;;;;;21.27;44.26;94039.09;4977829;28;20030;-73
2023/06/07 09:32:43;;;;;;;7.80;3.25;;;;;;;21.19;44.39;94029.38;4975229;28;20893;-73
2023/06/07 09:35:13;;;;;;;11.45;3.25;;;;;;;21.34;44.11;94039.16;4977605;28;20046;-72
2023/06/07 09:37:54;;;;;;;5.22;3.00;;;;;;;21.09;43.14;94022.75;4981805;28;20031;-74
2023/06/07 09:40:21;;;;;;;6.63;2.88;;;;;;;21.34;42.99;94031.03;4974835;28;20113;-73
2023/06/07 09:42:59;;;;;;;7.95;3.60;;;;;;;21.32;43.74;94034.13;4974362;28;20066;-73
2023/06/07 09:45:25;;;;;;;9.75;3.45;;;;;;;21.19;44.38;94026.69;4975913;28;20072;-72
2023/06/07 09:48:01;;;;;;;8.82;2.88;;;;;;;21.34;43.66;94026.41;4974815;28;20417;-73
2023/06/07 09:50:27;;;;;;;8.57;3.67;;;;;;;21.65;43.00;94037.84;4973613;28;20107;-72
2023/06/07 09:52:57;;;;;;;7.22;3.67;;;;;;;21.25;43.71;94039.50;4991324;28;20609;-71
2023/06/07 09:55:27;;;;;;;5.35;2.83;;;;;;;21.37;43.20;94036.47;4975607;28;20635;-72
2023/06/07 09:57:53;;;;;;;6.65;2.70;;;;;;;21.43;43.34;94015.25;4976311;28;21033;-72
2023/06/07 10:00:20;;;;;;;5.65;3.50;;;;;;;21.16;43.80;94016.63;4977046;28;20574;-71
2023/06/07 10:02:46;;;;;;;5.38;2.72;;;;;;;20.85;43.88;94026.75;4975306;28;21696;-73
2023/06/07 10:05:13;;;;;;;6.38;3.42;;;;;;;20.78;45.04;94031.31;4976022;28;20089;-73
2023/06/07 10:07:42;;;;;;;7.75;3.10;;;;;;;20.52;45.10;94029.53;4975612;28;20189;-73
2023/06/07 10:10:14;;;;;;;7.53;3.40;;;;;;;20.70;45.57;94032.41;4975336;28;20018;-71
2023/06/07 10:12:41;;;;;;;7.00;2.63;;;;;;;20.75;45.19;94015.84;4975607;28;20019;-70
2023/06/07 10:15:09;;;;;;;6.80;3.33;;;;;;;20.95;45.38;94025.31;4974605;28;20039;-70
2023/06/07 10:17:54;;;;;;;4.85;2.60;;;;;;;20.85;45.27;94015.94;4977428;28;20069;-72
2023/06/07 10:20:52;;;;;;;10.40;3.17;;;;;;;20.99;44.53;94013.38;4975595;28;20050;-72
2023/06/07 10:23:26;;;;;;;7.90;3.03;;;;;;;20.63;46.19;94008.03;4970262;28;20508;-72
2023/06/07 10:26:03;;;;;;;6.25;3.10;;;;;;;20.60;47.24;94017.63;4972877;28;20076;-74
2023/06/07 10:28:37;;;;;;;7.72;3.05;;;;;;;20.91;47.07;94008.31;4976484;28;20046;-73
2023/06/07 10:31:07;;;;;;;10.10;3.15;;;;;;;21.06;46.72;94012.69;4971753;28;20718;-73
2023/06/07 10:33:33;;;;;;;6.60;2.70;;;;;;;21.04;46.10;93996.03;4976917;28;20054;-73
2023/06/07 10:35:59;;;;;;;7.05;3.20;;;;;;;21.03;46.37;94008.00;4974421;28;20608;-73
2023/06/07 10:38:29;;;;;;;9.40;3.17;;;;;;;21.16;44.92;94014.69;4975236;28;20050;-73
2023/06/07 10:40:57;;;;;;;8.88;2.97;;;;;;;20.91;45.20;94006.38;4974072;28;20089;-73
2023/06/07 10:43:28;;;;;;;6.63;2.80;;;;;;;21.12;45.13;94013.13;4975938;28;20720;-73
2023/06/07 10:46:25;;;;;;;7.47;3.25;;;;;;;20.97;45.87;94012.22;4974768;28;20026;-72
2023/06/07 10:48:51;;;;;;;7.20;3.65;;;;;;;20.95;46.00;93995.59;4974516;28;20050;-72
2023/06/07 10:51:19;;;;;;;7.10;3.28;;;;;;;21.34;45.01;94007.47;4982945;28;20038;-74
2023/06/07 10:53:56;;;;;;;7.85;3.15;;;;;;;20.92;45.54;93988.25;4973851;28;20038;-72
2023/06/07 10:56:31;;;;;;;5.50;3.22;;;;;;;20.96;46.18;94005.25;4972053;28;20042;-71
2023/06/07 10:59:21;;;;;;;4.63;3.15;;;;;;;21.20;45.93;94001.97;4982040;28;20129;-72
2023/06/07 11:01:48;;;;;;;4.13;2.80;;;;;;;21.27;45.23;94001.22;4965990;28;20504;-72
2023/06/07 11:04:39;;;;;;;3.28;2.75;;;;;;;21.37;45.57;94004.00;4976040;28;20119;-73
2023/06/07 11:07:20;;;;;;;5.13;3.20;;;;;;;21.14;44.60;93999.97;4972059;28;20053;-72
2023/06/07 11:09:48;;;;;;;10.02;3.28;;;;;;;20.86;45.70;93978.88;4972975;28;20159;-73
2023/06/07 11:12:35;;;;;;;6.93;3.33;;;;;;;20.72;45.23;93994.97;4973899;28;20045;-72
2023/06/07 11:15:35;;;;;;;3.67;2.85;;;;;;;20.79;44.91;93962.59;4968966;28;20100;-73
2023/06/07 11:18:08;;;;;;;6.30;2.75;;;;;;;21.35;44.43;93978.50;4973273;28;20039;-72
2023/06/07 11:20:37;;;;;;;4.18;2.90;;;;;;;21.21;43.50;93986.53;4974045;28;20038;-71
2023/06/07 11:23:21;;;;;;;4.70;2.30;;;;;;;20.93;44.62;93957.31;4971471;28;20038;-71
2023/06/07 11:25:51;;;;;;;4.20;3.60;;;;;;;21.21;44.97;93973.00;4972724;28;20061;-72
2023/06/07 11:28:21;;;;;;;5.85;3.03;;;;;;;21.12;44.65;93970.59;4975286;28;20125;-71
2023/06/07 11:30:49;;;;;;;4.03;2.50;;;;;;;21.20;44.90;93974.16;4974028;28;20050;-72
2023/06/07 11:33:18;;;;;;;5.50;2.97;;;;;;;21.28;44.09;93973.81;4973041;28;20038;-71